sensor_id;sensor_type;location;lat;lon;timestamp;pressure;altitude;pressure_sealevel;temperature;humidity
40171;BME280;37650;52.790;18.268;2023-02-01T00:00:20;99360.02;;;2.43;100.00
40171;BME280;37650;52.790;18.268;2023-02-01T00:04:01;99350.32;;;2.44;100.00
40171;BME280;37650;52.790;18.268;2023-02-01T00:07:22;99351.21;;;2.42;100.00
40171;BME280;37650;52.790;18.268;2023-02-01T00:10:45;99343.65;;;2.40;100.00
40171;BME280;37650;52.790;18.268;2023-02-01T00:14:06;99342.33;;;2.36;100.00
40171;BME280;37650;52.790;18.268;2023-02-01T00:17:28;99344.90;;;2.29;100.00
40171;BME280;37650;52.790;18.268;2023-02-01T00:20:49;99346.61;;;2.21;100.00
40171;BME280;37650;52.790;18.268;2023-02-01T00:24:10;99345.02;;;2.15;100.00
40171;BME280;37650;52.790;18.268;2023-02-01T00:27:31;99338.35;;;2.10;100.00
40171;BME280;37650;52.790;18.268;2023-02-01T00:31:00;99342.40;;;2.07;100.00
40171;BME280;37650;52.790;18.268;2023-02-01T00:34:21;99352.82;;;2.05;100.00
40171;BME280;37650;52.790;18.268;2023-02-01T00:37:42;99353.98;;;2.07;100.00
40171;BME280;37650;52.790;18.268;2023-02-01T00:41:15;99358.77;;;2.08;100.00
40171;BME280;37650;52.790;18.268;2023-02-01T00:44:36;99361.89;;;2.09;100.00
40171;BME280;37650;52.790;18.268;2023-02-01T00:47:56;99366.78;;;2.08;100.00
40171;BME280;37650;52.790;18.268;2023-02-01T00:51:21;99360.70;;;2.08;100.00
40171;BME280;37650;52.790;18.268;2023-02-01T00:54:42;99359.42;;;2.12;100.00
40171;BME280;37650;52.790;18.268;2023-02-01T00:58:04;99360.55;;;2.17;100.00
40171;BME280;37650;52.790;18.268;2023-02-01T01:01:27;99363.13;;;2.18;100.00
40171;BME280;37650;52.790;18.268;2023-02-01T01:04:49;99363.27;;;2.19;100.00
40171;BME280;37650;52.790;18.268;2023-02-01T01:08:10;99364.44;;;2.22;100.00
40171;BME280;37650;52.790;18.268;2023-02-01T01:11:34;99355.50;;;2.27;100.00
40171;BME280;37650;52.790;18.268;2023-02-01T01:14:55;99358.16;;;2.32;100.00
40171;BME280;37650;52.790;18.268;2023-02-01T01:18:16;99351.50;;;2.36;100.00
40171;BME280;37650;52.790;18.268;2023-02-01T01:21:38;99341.63;;;2.36;100.00
40171;BME280;37650;52.790;18.268;2023-02-01T01:24:58;99343.86;;;2.37;100.00
40171;BME280;37650;52.790;18.268;2023-02-01T01:28:19;99345.75;;;2.39;100.00
40171;BME280;37650;52.790;18.268;2023-02-01T01:31:40;99349.90;;;2.39;100.00
40171;BME280;37650;52.790;18.268;2023-02-01T01:35:01;99346.19;;;2.42;100.00
40171;BME280;37650;52.790;18.268;2023-02-01T01:38:22;99346.09;;;2.47;100.00
40171;BME280;37650;52.790;18.268;2023-02-01T01:41:43;99348.83;;;2.49;100.00
40171;BME280;37650;52.790;18.268;2023-02-01T01:45:33;99348.34;;;2.47;100.00
40171;BME280;37650;52.790;18.268;2023-02-01T01:52:24;99346.11;;;2.46;100.00
40171;BME280;37650;52.790;18.268;2023-02-01T01:55:45;99347.30;;;2.47;100.00
40171;BME280;37650;52.790;18.268;2023-02-01T01:59:09;99346.14;;;2.45;100.00
40171;BME280;37650;52.790;18.268;2023-02-01T02:02:30;99345.95;;;2.45;100.00
40171;BME280;37650;52.790;18.268;2023-02-01T02:05:52;99345.08;;;2.46;100.00
40171;BME280;37650;52.790;18.268;2023-02-01T02:09:15;99349.27;;;2.45;100.00
40171;BME280;37650;52.790;18.268;2023-02-01T02:12:42;99355.85;;;2.44;100.00
40171;BME280;37650;52.790;18.268;2023-02-01T02:16:14;99349.96;;;2.45;100.00
40171;BME280;37650;52.790;18.268;2023-02-01T02:31:12;99360.58;;;2.50;100.00
40171;BME280;37650;52.790;18.268;2023-02-01T02:34:45;99352.55;;;2.53;100.00
40171;BME280;37650;52.790;18.268;2023-02-01T02:46:15;99358.30;;;2.51;100.00
40171;BME280;37650;52.790;18.268;2023-02-01T02:49:55;99354.23;;;2.47;100.00
40171;BME280;37650;52.790;18.268;2023-02-01T02:57:36;99382.16;;;2.35;100.00
40171;BME280;37650;52.790;18.268;2023-02-01T03:01:16;99379.86;;;2.38;100.00
40171;BME280;37650;52.790;18.268;2023-02-01T03:04:56;99387.92;;;2.41;100.00
40171;BME280;37650;52.790;18.268;2023-02-01T03:08:21;99390.99;;;2.44;100.00
40171;BME280;37650;52.790;18.268;2023-02-01T03:11:45;99390.06;;;2.46;100.00
40171;BME280;37650;52.790;18.268;2023-02-01T03:15:35;99389.52;;;2.48;100.00
40171;BME280;37650;52.790;18.268;2023-02-01T03:19:03;99389.14;;;2.50;100.00
40171;BME280;37650;52.790;18.268;2023-02-01T03:22:28;99398.32;;;2.50;100.00
40171;BME280;37650;52.790;18.268;2023-02-01T03:25:53;99394.08;;;2.54;100.00
40171;BME280;37650;52.790;18.268;2023-02-01T03:29:18;99395.77;;;2.56;100.00
40171;BME280;37650;52.790;18.268;2023-02-01T03:32:42;99384.02;;;2.55;100.00
40171;BME280;37650;52.790;18.268;2023-02-01T03:36:31;99387.30;;;2.56;100.00
40171;BME280;37650;52.790;18.268;2023-02-01T03:40:00;99381.70;;;2.57;100.00
40171;BME280;37650;52.790;18.268;2023-02-01T03:43:23;99384.12;;;2.58;100.00
40171;BME280;37650;52.790;18.268;2023-02-01T03:46:57;99382.77;;;2.56;100.00
40171;BME280;37650;52.790;18.268;2023-02-01T03:50:20;99387.83;;;2.55;100.00
40171;BME280;37650;52.790;18.268;2023-02-01T03:53:46;99392.18;;;2.53;100.00
40171;BME280;37650;52.790;18.268;2023-02-01T03:57:14;99391.66;;;2.53;100.00
40171;BME280;37650;52.790;18.268;2023-02-01T04:00:38;99391.67;;;2.53;100.00
40171;BME280;37650;52.790;18.268;2023-02-01T04:03:59;99381.80;;;2.53;100.00
40171;BME280;37650;52.790;18.268;2023-02-01T04:07:20;99378.27;;;2.56;100.00
40171;BME280;37650;52.790;18.268;2023-02-01T04:10:41;99380.80;;;2.60;100.00
40171;BME280;37650;52.790;18.268;2023-02-01T04:14:02;99387.52;;;2.62;100.00
40171;BME280;37650;52.790;18.268;2023-02-01T04:17:24;99382.16;;;2.61;100.00
40171;BME280;37650;52.790;18.268;2023-02-01T04:20:45;99372.50;;;2.60;100.00
40171;BME280;37650;52.790;18.268;2023-02-01T04:24:06;99376.64;;;2.61;100.00
40171;BME280;37650;52.790;18.268;2023-02-01T04:27:27;99380.08;;;2.62;100.00
40171;BME280;37650;52.790;18.268;2023-02-01T04:30:48;99374.36;;;2.62;100.00
40171;BME280;37650;52.790;18.268;2023-02-01T04:34:09;99377.43;;;2.63;100.00
40171;BME280;37650;52.790;18.268;2023-02-01T04:37:30;99376.90;;;2.64;100.00
40171;BME280;37650;52.790;18.268;2023-02-01T04:40:51;99374.98;;;2.64;100.00
40171;BME280;37650;52.790;18.268;2023-02-01T04:44:15;99377.93;;;2.64;100.00
40171;BME280;37650;52.790;18.268;2023-02-01T04:47:35;99387.80;;;2.64;100.00
40171;BME280;37650;52.790;18.268;2023-02-01T04:50:56;99374.89;;;2.61;100.00
40171;BME280;37650;52.790;18.268;2023-02-01T04:54:17;99369.45;;;2.56;100.00
40171;BME280;37650;52.790;18.268;2023-02-01T04:57:39;99366.59;;;2.52;100.00
40171;BME280;37650;52.790;18.268;2023-02-01T05:01:05;99367.87;;;2.48;100.00
40171;BME280;37650;52.790;18.268;2023-02-01T05:04:26;99352.17;;;2.46;100.00
40171;BME280;37650;52.790;18.268;2023-02-01T07:07:00;99365.12;;;2.64;100.00
40171;BME280;37650;52.790;18.268;2023-02-01T07:10:21;99363.11;;;2.61;100.00
40171;BME280;37650;52.790;18.268;2023-02-01T07:13:42;99363.84;;;2.60;100.00
40171;BME280;37650;52.790;18.268;2023-02-01T07:17:03;99361.59;;;2.60;100.00
40171;BME280;37650;52.790;18.268;2023-02-01T07:20:24;99363.34;;;2.58;100.00
40171;BME280;37650;52.790;18.268;2023-02-01T07:23:45;99354.52;;;2.58;100.00
40171;BME280;37650;52.790;18.268;2023-02-01T07:27:05;99357.75;;;2.61;100.00
40171;BME280;37650;52.790;18.268;2023-02-01T07:30:27;99355.76;;;2.65;100.00
40171;BME280;37650;52.790;18.268;2023-02-01T07:33:48;99351.52;;;2.69;100.00
40171;BME280;37650;52.790;18.268;2023-02-01T07:37:11;99348.48;;;2.74;100.00
40171;BME280;37650;52.790;18.268;2023-02-01T07:40:32;99359.20;;;2.81;100.00
40171;BME280;37650;52.790;18.268;2023-02-01T07:43:53;99358.23;;;2.86;100.00
40171;BME280;37650;52.790;18.268;2023-02-01T07:47:14;99351.84;;;2.93;100.00
40171;BME280;37650;52.790;18.268;2023-02-01T07:50:39;99354.65;;;3.07;100.00
40171;BME280;37650;52.790;18.268;2023-02-01T07:54:00;99357.90;;;3.17;100.00
40171;BME280;37650;52.790;18.268;2023-02-01T07:57:22;99365.78;;;3.35;100.00
40171;BME280;37650;52.790;18.268;2023-02-01T08:00:43;99354.52;;;3.63;100.00
40171;BME280;37650;52.790;18.268;2023-02-01T08:04:22;99350.62;;;3.72;100.00
40171;BME280;37650;52.790;18.268;2023-02-01T08:07:43;99341.59;;;3.87;100.00
40171;BME280;37650;52.790;18.268;2023-02-01T08:11:05;99344.80;;;4.09;100.00
40171;BME280;37650;52.790;18.268;2023-02-01T08:14:26;99339.78;;;4.27;100.00
40171;BME280;37650;52.790;18.268;2023-02-01T08:17:48;99340.68;;;4.50;100.00
40171;BME280;37650;52.790;18.268;2023-02-01T08:21:14;99346.73;;;4.86;100.00
40171;BME280;37650;52.790;18.268;2023-02-01T08:24:35;99356.92;;;5.11;100.00
40171;BME280;37650;52.790;18.268;2023-02-01T08:27:59;99343.77;;;5.47;100.00
40171;BME280;37650;52.790;18.268;2023-02-01T08:31:22;99349.08;;;5.49;100.00
40171;BME280;37650;52.790;18.268;2023-02-01T08:34:44;99357.66;;;5.20;100.00
40171;BME280;37650;52.790;18.268;2023-02-01T08:38:05;99370.95;;;5.07;100.00
40171;BME280;37650;52.790;18.268;2023-02-01T08:41:28;99374.07;;;5.13;100.00
40171;BME280;37650;52.790;18.268;2023-02-01T08:44:49;99375.19;;;4.99;100.00
40171;BME280;37650;52.790;18.268;2023-02-01T08:48:10;99377.59;;;5.11;100.00
40171;BME280;37650;52.790;18.268;2023-02-01T08:51:31;99379.36;;;4.93;100.00
40171;BME280;37650;52.790;18.268;2023-02-01T08:54:52;99383.40;;;4.62;100.00
40171;BME280;37650;52.790;18.268;2023-02-01T08:58:13;99382.77;;;4.30;100.00
40171;BME280;37650;52.790;18.268;2023-02-01T09:01:35;99372.97;;;4.07;100.00
40171;BME280;37650;52.790;18.268;2023-02-01T09:04:56;99381.17;;;3.98;100.00
40171;BME280;37650;52.790;18.268;2023-02-01T09:08:17;99385.48;;;3.86;100.00
40171;BME280;37650;52.790;18.268;2023-02-01T09:11:40;99385.02;;;3.77;100.00
40171;BME280;37650;52.790;18.268;2023-02-01T09:15:01;99386.48;;;3.74;100.00
40171;BME280;37650;52.790;18.268;2023-02-01T09:18:23;99392.17;;;3.68;100.00
40171;BME280;37650;52.790;18.268;2023-02-01T09:21:43;99398.69;;;3.57;100.00
40171;BME280;37650;52.790;18.268;2023-02-01T09:25:04;99392.88;;;3.47;100.00
40171;BME280;37650;52.790;18.268;2023-02-01T09:28:25;99397.77;;;3.38;100.00
40171;BME280;37650;52.790;18.268;2023-02-01T09:31:47;99394.23;;;3.26;100.00
40171;BME280;37650;52.790;18.268;2023-02-01T09:35:08;99392.70;;;3.18;100.00
40171;BME280;37650;52.790;18.268;2023-02-01T09:38:30;99388.58;;;3.16;100.00
40171;BME280;37650;52.790;18.268;2023-02-01T09:46:27;99390.10;;;3.18;100.00
40171;BME280;37650;52.790;18.268;2023-02-01T09:49:55;99386.16;;;3.23;100.00
40171;BME280;37650;52.790;18.268;2023-02-01T09:53:33;99384.24;;;3.52;100.00
40171;BME280;37650;52.790;18.268;2023-02-01T09:57:01;99380.54;;;3.83;100.00
40171;BME280;37650;52.790;18.268;2023-02-01T10:00:29;99375.94;;;4.06;100.00
40171;BME280;37650;52.790;18.268;2023-02-01T10:03:56;99380.70;;;4.16;100.00
40171;BME280;37650;52.790;18.268;2023-02-01T10:07:40;99375.69;;;4.58;100.00
40171;BME280;37650;52.790;18.268;2023-02-01T10:19:13;99354.73;;;5.78;100.00
40171;BME280;37650;52.790;18.268;2023-02-01T10:22:46;99353.46;;;6.01;100.00
40171;BME280;37650;52.790;18.268;2023-02-01T10:26:13;99354.35;;;6.44;100.00
40171;BME280;37650;52.790;18.268;2023-02-01T10:29:40;99351.43;;;6.23;100.00
40171;BME280;37650;52.790;18.268;2023-02-01T10:33:17;99344.71;;;8.22;100.00
40171;BME280;37650;52.790;18.268;2023-02-01T10:36:50;99335.55;;;9.76;100.00
40171;BME280;37650;52.790;18.268;2023-02-01T10:40:22;99327.19;;;9.92;100.00
40171;BME280;37650;52.790;18.268;2023-02-01T10:43:45;99321.05;;;10.40;100.00
40171;BME280;37650;52.790;18.268;2023-02-01T10:47:11;99323.42;;;10.80;98.29
40171;BME280;37650;52.790;18.268;2023-02-01T10:54:34;99319.47;;;10.59;99.45
40171;BME280;37650;52.790;18.268;2023-02-01T10:57:58;99319.05;;;10.35;96.97
40171;BME280;37650;52.790;18.268;2023-02-01T11:01:33;99317.31;;;9.80;97.55
40171;BME280;37650;52.790;18.268;2023-02-01T11:05:07;99317.95;;;9.50;98.26
40171;BME280;37650;52.790;18.268;2023-02-01T11:08:32;99318.44;;;9.08;97.74
40171;BME280;37650;52.790;18.268;2023-02-01T11:11:54;99323.55;;;9.25;96.87
40171;BME280;37650;52.790;18.268;2023-02-01T11:15:21;99317.30;;;9.93;94.44
40171;BME280;37650;52.790;18.268;2023-02-01T11:18:42;99325.39;;;8.60;95.90
40171;BME280;37650;52.790;18.268;2023-02-01T11:22:03;99316.27;;;7.86;99.93
40171;BME280;37650;52.790;18.268;2023-02-01T11:25:25;99314.37;;;7.31;100.00
40171;BME280;37650;52.790;18.268;2023-02-01T11:29:10;99313.52;;;6.95;100.00
40171;BME280;37650;52.790;18.268;2023-02-01T11:32:32;99315.92;;;6.42;100.00
40171;BME280;37650;52.790;18.268;2023-02-01T11:35:53;99314.20;;;6.18;100.00
40171;BME280;37650;52.790;18.268;2023-02-01T11:39:25;99319.90;;;6.38;100.00
40171;BME280;37650;52.790;18.268;2023-02-01T11:42:55;99317.63;;;6.15;100.00
40171;BME280;37650;52.790;18.268;2023-02-01T11:46:18;99315.21;;;5.84;100.00
40171;BME280;37650;52.790;18.268;2023-02-01T11:49:45;99314.85;;;5.79;100.00
40171;BME280;37650;52.790;18.268;2023-02-01T12:15:14;99316.80;;;4.82;100.00
40171;BME280;37650;52.790;18.268;2023-02-01T12:22:22;99314.23;;;4.57;100.00
40171;BME280;37650;52.790;18.268;2023-02-01T12:36:59;99313.79;;;4.49;100.00
40171;BME280;37650;52.790;18.268;2023-02-01T12:44:08;99308.42;;;4.72;100.00
40171;BME280;37650;52.790;18.268;2023-02-01T12:47:39;99305.20;;;4.70;100.00
40171;BME280;37650;52.790;18.268;2023-02-01T12:51:05;99310.73;;;4.64;100.00
40171;BME280;37650;52.790;18.268;2023-02-01T12:54:50;99304.55;;;4.56;100.00
40171;BME280;37650;52.790;18.268;2023-02-01T12:58:45;99300.49;;;4.52;100.00
40171;BME280;37650;52.790;18.268;2023-02-01T13:06:12;99302.40;;;4.29;100.00
40171;BME280;37650;52.790;18.268;2023-02-01T13:13:49;99310.05;;;4.22;100.00
40171;BME280;37650;52.790;18.268;2023-02-01T13:24:03;99311.15;;;4.14;100.00
40171;BME280;37650;52.790;18.268;2023-02-01T13:27:27;99312.56;;;4.07;100.00
40171;BME280;37650;52.790;18.268;2023-02-01T13:31:07;99321.60;;;4.07;100.00
40171;BME280;37650;52.790;18.268;2023-02-01T13:41:57;99319.21;;;4.11;100.00
40171;BME280;37650;52.790;18.268;2023-02-01T13:45:28;99319.33;;;4.13;100.00
40171;BME280;37650;52.790;18.268;2023-02-01T13:48:52;99322.63;;;4.13;100.00
40171;BME280;37650;52.790;18.268;2023-02-01T13:52:25;99325.67;;;4.10;100.00
40171;BME280;37650;52.790;18.268;2023-02-01T13:55:56;99324.66;;;4.09;100.00
40171;BME280;37650;52.790;18.268;2023-02-01T14:09:48;99324.73;;;4.07;100.00
40171;BME280;37650;52.790;18.268;2023-02-01T14:13:27;99324.60;;;4.05;100.00
40171;BME280;37650;52.790;18.268;2023-02-01T14:20:40;99323.08;;;4.03;100.00
40171;BME280;37650;52.790;18.268;2023-02-01T14:27:35;99321.77;;;3.94;100.00
40171;BME280;37650;52.790;18.268;2023-02-01T14:30:57;99320.27;;;3.92;100.00
40171;BME280;37650;52.790;18.268;2023-02-01T14:34:31;99323.65;;;3.89;100.00
40171;BME280;37650;52.790;18.268;2023-02-01T14:38:00;99325.29;;;3.86;100.00
40171;BME280;37650;52.790;18.268;2023-02-01T14:41:32;99325.00;;;3.84;100.00
40171;BME280;37650;52.790;18.268;2023-02-01T14:44:56;99326.58;;;3.84;100.00
40171;BME280;37650;52.790;18.268;2023-02-01T14:51:56;99327.33;;;3.88;100.00
40171;BME280;37650;52.790;18.268;2023-02-01T14:55:24;99333.59;;;3.88;100.00
40171;BME280;37650;52.790;18.268;2023-02-01T14:58:58;99326.83;;;3.80;100.00
40171;BME280;37650;52.790;18.268;2023-02-01T15:02:25;99323.64;;;3.76;100.00
40171;BME280;37650;52.790;18.268;2023-02-01T15:05:55;99327.80;;;3.70;100.00
40171;BME280;37650;52.790;18.268;2023-02-01T15:12:54;99331.43;;;3.63;100.00
40171;BME280;37650;52.790;18.268;2023-02-01T15:16:17;99335.17;;;3.66;100.00
40171;BME280;37650;52.790;18.268;2023-02-01T15:19:38;99333.90;;;3.68;100.00
40171;BME280;37650;52.790;18.268;2023-02-01T15:23:01;99333.73;;;3.68;100.00
40171;BME280;37650;52.790;18.268;2023-02-01T15:26:27;99335.83;;;3.68;100.00
40171;BME280;37650;52.790;18.268;2023-02-01T15:29:49;99338.89;;;3.70;100.00
40171;BME280;37650;52.790;18.268;2023-02-01T15:33:19;99338.16;;;3.71;100.00
40171;BME280;37650;52.790;18.268;2023-02-01T15:36:41;99335.44;;;3.69;100.00
40171;BME280;37650;52.790;18.268;2023-02-01T15:40:22;99333.92;;;3.67;100.00
40171;BME280;37650;52.790;18.268;2023-02-01T15:44:03;99336.73;;;3.66;100.00
40171;BME280;37650;52.790;18.268;2023-02-01T15:47:27;99338.64;;;3.66;100.00
40171;BME280;37650;52.790;18.268;2023-02-01T15:50:50;99344.76;;;3.64;100.00
40171;BME280;37650;52.790;18.268;2023-02-01T15:54:22;99342.98;;;3.59;100.00
40171;BME280;37650;52.790;18.268;2023-02-01T15:57:45;99348.59;;;3.57;100.00
40171;BME280;37650;52.790;18.268;2023-02-01T16:01:11;99351.70;;;3.57;100.00
40171;BME280;37650;52.790;18.268;2023-02-01T16:04:46;99353.29;;;3.56;100.00
40171;BME280;37650;52.790;18.268;2023-02-01T16:08:25;99344.84;;;3.54;100.00
40171;BME280;37650;52.790;18.268;2023-02-01T16:11:51;99339.13;;;3.54;100.00
40171;BME280;37650;52.790;18.268;2023-02-01T16:15:13;99339.63;;;3.55;100.00
40171;BME280;37650;52.790;18.268;2023-02-01T16:18:34;99336.52;;;3.54;100.00
40171;BME280;37650;52.790;18.268;2023-02-01T16:21:56;99337.30;;;3.51;100.00
40171;BME280;37650;52.790;18.268;2023-02-01T16:25:17;99332.35;;;3.48;100.00
40171;BME280;37650;52.790;18.268;2023-02-01T16:28:38;99333.48;;;3.44;100.00
40171;BME280;37650;52.790;18.268;2023-02-01T16:32:01;99331.13;;;3.42;100.00
40171;BME280;37650;52.790;18.268;2023-02-01T16:35:29;99332.05;;;3.39;100.00
40171;BME280;37650;52.790;18.268;2023-02-01T16:38:55;99338.36;;;3.36;100.00
40171;BME280;37650;52.790;18.268;2023-02-01T16:42:17;99340.69;;;3.33;100.00
40171;BME280;37650;52.790;18.268;2023-02-01T16:45:37;99340.77;;;3.30;100.00
40171;BME280;37650;52.790;18.268;2023-02-01T16:49:01;99337.51;;;3.28;100.00
40171;BME280;37650;52.790;18.268;2023-02-01T16:52:24;99333.77;;;3.25;100.00
40171;BME280;37650;52.790;18.268;2023-02-01T16:55:47;99330.81;;;3.18;100.00
40171;BME280;37650;52.790;18.268;2023-02-01T16:59:09;99330.67;;;3.10;100.00
40171;BME280;37650;52.790;18.268;2023-02-01T17:02:30;99334.34;;;3.01;100.00
40171;BME280;37650;52.790;18.268;2023-02-01T17:05:54;99337.83;;;2.92;100.00
40171;BME280;37650;52.790;18.268;2023-02-01T17:09:19;99341.96;;;2.86;100.00
40171;BME280;37650;52.790;18.268;2023-02-01T17:12:41;99337.77;;;2.80;100.00
40171;BME280;37650;52.790;18.268;2023-02-01T17:16:05;99332.89;;;2.73;100.00
40171;BME280;37650;52.790;18.268;2023-02-01T17:19:30;99332.80;;;2.69;100.00
40171;BME280;37650;52.790;18.268;2023-02-01T17:22:54;99332.16;;;2.67;100.00
40171;BME280;37650;52.790;18.268;2023-02-01T17:26:24;99332.23;;;2.63;100.00
40171;BME280;37650;52.790;18.268;2023-02-01T17:29:46;99330.26;;;2.59;100.00
40171;BME280;37650;52.790;18.268;2023-02-01T17:33:19;99322.79;;;2.52;100.00
40171;BME280;37650;52.790;18.268;2023-02-01T17:36:45;99324.62;;;2.47;100.00
40171;BME280;37650;52.790;18.268;2023-02-01T17:40:08;99319.55;;;2.42;100.00
40171;BME280;37650;52.790;18.268;2023-02-01T17:43:31;99321.05;;;2.37;100.00
40171;BME280;37650;52.790;18.268;2023-02-01T17:46:53;99321.17;;;2.31;100.00
40171;BME280;37650;52.790;18.268;2023-02-01T17:50:18;99319.50;;;2.27;100.00
40171;BME280;37650;52.790;18.268;2023-02-01T17:53:40;99322.52;;;2.24;100.00
40171;BME280;37650;52.790;18.268;2023-02-01T17:57:01;99318.09;;;2.21;100.00
40171;BME280;37650;52.790;18.268;2023-02-01T18:00:23;99322.52;;;2.16;100.00
40171;BME280;37650;52.790;18.268;2023-02-01T18:03:45;99330.25;;;2.09;100.00
40171;BME280;37650;52.790;18.268;2023-02-01T18:07:07;99336.21;;;2.04;100.00
40171;BME280;37650;52.790;18.268;2023-02-01T18:10:29;99333.52;;;2.01;100.00
40171;BME280;37650;52.790;18.268;2023-02-01T18:13:53;99330.91;;;2.01;100.00
40171;BME280;37650;52.790;18.268;2023-02-01T18:17:14;99326.45;;;2.00;100.00
40171;BME280;37650;52.790;18.268;2023-02-01T18:20:39;99320.05;;;1.99;100.00
40171;BME280;37650;52.790;18.268;2023-02-01T18:24:04;99321.19;;;2.04;100.00
40171;BME280;37650;52.790;18.268;2023-02-01T18:27:26;99315.73;;;2.07;100.00
40171;BME280;37650;52.790;18.268;2023-02-01T18:30:52;99317.06;;;2.11;100.00
40171;BME280;37650;52.790;18.268;2023-02-01T18:34:15;99314.95;;;2.13;100.00
40171;BME280;37650;52.790;18.268;2023-02-01T18:37:45;99308.95;;;2.10;100.00
40171;BME280;37650;52.790;18.268;2023-02-01T18:41:16;99297.60;;;2.07;100.00
40171;BME280;37650;52.790;18.268;2023-02-01T18:44:40;99295.19;;;2.06;100.00
40171;BME280;37650;52.790;18.268;2023-02-01T18:48:04;99291.27;;;2.03;100.00
40171;BME280;37650;52.790;18.268;2023-02-01T18:51:28;99285.27;;;2.00;100.00
40171;BME280;37650;52.790;18.268;2023-02-01T18:54:49;99288.08;;;1.98;100.00
40171;BME280;37650;52.790;18.268;2023-02-01T18:58:14;99287.70;;;1.99;100.00
40171;BME280;37650;52.790;18.268;2023-02-01T19:01:37;99281.91;;;2.04;100.00
40171;BME280;37650;52.790;18.268;2023-02-01T19:05:00;99283.50;;;2.10;100.00
40171;BME280;37650;52.790;18.268;2023-02-01T19:08:23;99281.83;;;2.17;100.00
40171;BME280;37650;52.790;18.268;2023-02-01T19:11:46;99277.14;;;2.18;100.00
40171;BME280;37650;52.790;18.268;2023-02-01T19:15:09;99270.15;;;2.20;100.00
40171;BME280;37650;52.790;18.268;2023-02-01T19:18:38;99276.52;;;2.23;100.00
40171;BME280;37650;52.790;18.268;2023-02-01T19:22:01;99273.02;;;2.24;100.00
40171;BME280;37650;52.790;18.268;2023-02-01T19:25:26;99268.69;;;2.25;100.00
40171;BME280;37650;52.790;18.268;2023-02-01T19:28:48;99266.05;;;2.27;100.00
40171;BME280;37650;52.790;18.268;2023-02-01T19:32:10;99261.81;;;2.30;100.00
40171;BME280;37650;52.790;18.268;2023-02-01T19:35:34;99266.00;;;2.37;100.00
40171;BME280;37650;52.790;18.268;2023-02-01T19:38:56;99262.60;;;2.41;100.00
40171;BME280;37650;52.790;18.268;2023-02-01T19:42:19;99259.25;;;2.45;100.00
40171;BME280;37650;52.790;18.268;2023-02-01T19:45:42;99248.68;;;2.53;100.00
40171;BME280;37650;52.790;18.268;2023-02-01T19:49:05;99245.81;;;2.57;100.00
40171;BME280;37650;52.790;18.268;2023-02-01T19:52:35;99238.54;;;2.57;100.00
40171;BME280;37650;52.790;18.268;2023-02-01T19:55:57;99243.23;;;2.57;100.00
40171;BME280;37650;52.790;18.268;2023-02-01T19:59:21;99250.55;;;2.55;100.00
40171;BME280;37650;52.790;18.268;2023-02-01T20:02:44;99255.96;;;2.52;100.00
40171;BME280;37650;52.790;18.268;2023-02-01T20:06:10;99256.90;;;2.49;100.00
40171;BME280;37650;52.790;18.268;2023-02-01T20:09:32;99263.58;;;2.45;100.00
40171;BME280;37650;52.790;18.268;2023-02-01T20:12:56;99271.33;;;2.39;100.00
40171;BME280;37650;52.790;18.268;2023-02-01T20:16:19;99280.70;;;2.37;100.00
40171;BME280;37650;52.790;18.268;2023-02-01T20:19:42;99287.79;;;2.38;100.00
40171;BME280;37650;52.790;18.268;2023-02-01T20:23:06;99285.55;;;2.38;100.00
40171;BME280;37650;52.790;18.268;2023-02-01T20:26:28;99288.28;;;2.39;100.00
40171;BME280;37650;52.790;18.268;2023-02-01T20:29:50;99283.44;;;2.39;100.00
40171;BME280;37650;52.790;18.268;2023-02-01T20:33:13;99287.13;;;2.36;100.00
40171;BME280;37650;52.790;18.268;2023-02-01T20:36:37;99288.52;;;2.35;100.00
40171;BME280;37650;52.790;18.268;2023-02-01T20:39:59;99286.65;;;2.35;100.00
40171;BME280;37650;52.790;18.268;2023-02-01T20:43:22;99284.36;;;2.36;100.00
40171;BME280;37650;52.790;18.268;2023-02-01T20:46:45;99280.93;;;2.34;100.00
40171;BME280;37650;52.790;18.268;2023-02-01T20:50:09;99284.06;;;2.34;100.00
40171;BME280;37650;52.790;18.268;2023-02-01T20:53:31;99280.55;;;2.36;100.00
40171;BME280;37650;52.790;18.268;2023-02-01T20:56:54;99281.02;;;2.39;100.00
40171;BME280;37650;52.790;18.268;2023-02-01T21:00:16;99281.86;;;2.40;100.00
40171;BME280;37650;52.790;18.268;2023-02-01T21:03:39;99276.81;;;2.41;100.00
40171;BME280;37650;52.790;18.268;2023-02-01T21:07:01;99275.77;;;2.41;100.00
40171;BME280;37650;52.790;18.268;2023-02-01T21:10:23;99283.40;;;2.41;100.00
40171;BME280;37650;52.790;18.268;2023-02-01T21:13:45;99285.65;;;2.41;100.00
40171;BME280;37650;52.790;18.268;2023-02-01T21:17:20;99289.14;;;2.39;100.00
40171;BME280;37650;52.790;18.268;2023-02-01T21:21:11;99288.29;;;2.39;100.00
40171;BME280;37650;52.790;18.268;2023-02-01T21:24:36;99283.42;;;2.40;100.00
40171;BME280;37650;52.790;18.268;2023-02-01T21:28:28;99283.74;;;2.41;100.00
40171;BME280;37650;52.790;18.268;2023-02-01T21:32:06;99278.61;;;2.38;100.00
40171;BME280;37650;52.790;18.268;2023-02-01T21:35:29;99276.78;;;2.35;100.00
40171;BME280;37650;52.790;18.268;2023-02-01T21:38:52;99273.86;;;2.33;100.00
40171;BME280;37650;52.790;18.268;2023-02-01T21:42:14;99275.42;;;2.34;100.00
40171;BME280;37650;52.790;18.268;2023-02-01T21:45:40;99285.41;;;2.35;100.00
40171;BME280;37650;52.790;18.268;2023-02-01T21:49:01;99283.91;;;2.34;100.00
40171;BME280;37650;52.790;18.268;2023-02-01T21:52:22;99278.36;;;2.34;100.00
40171;BME280;37650;52.790;18.268;2023-02-01T21:55:43;99278.16;;;2.35;100.00
40171;BME280;37650;52.790;18.268;2023-02-01T21:59:04;99282.96;;;2.36;100.00
40171;BME280;37650;52.790;18.268;2023-02-01T22:02:26;99281.03;;;2.38;100.00